Time;durP1;ratioP1;P1;durP2;ratioP2;P2;SDS_P1;SDS_P2;PMS_P1;PMS_P2;Temp;Humidity;BMP_temperature;BMP_pressure;BME280_temperature;BME280_humidity;BME280_pressure;Samples;Min_cycle;Max_cycle;Signal;HPM_P1;HPM_P2
2022/12/09 00:02:03;;;;;;;84.05;44.93;;;;;;;1.62;74.33;96420.06;1794746;77;25718;-74
2022/12/09 00:04:30;;;;;;;84.97;45.38;;;;;;;1.61;74.34;96421.90;1827568;77;26640;-72
2022/12/09 00:06:57;;;;;;;96.37;50.35;;;;;;;1.60;74.30;96423.41;1809168;77;28038;-71
2022/12/09 00:09:23;;;;;;;93.85;49.67;;;;;;;1.62;74.32;96422.73;1812336;77;25412;-71
2022/12/09 00:11:51;;;;;;;93.00;51.40;;;;;;;1.63;74.31;96422.55;1838570;77;25666;-72
2022/12/09 00:14:18;;;;;;;93.82;50.23;;;;;;;1.66;74.32;96429.35;1816568;77;25869;-74
2022/12/09 00:16:45;;;;;;;97.20;50.43;;;;;;;1.65;74.39;96429.86;1801068;77;25729;-72
2022/12/09 00:19:11;;;;;;;94.60;48.10;;;;;;;1.67;74.41;96426.52;1820668;77;27333;-74
2022/12/09 00:21:38;;;;;;;86.35;45.17;;;;;;;1.64;74.38;96430.03;1797127;77;25731;-72
2022/12/09 00:24:08;;;;;;;82.10;44.93;;;;;;;1.61;74.37;96425.89;1824756;77;25726;-72
2022/12/09 00:26:35;;;;;;;79.00;43.28;;;;;;;1.63;74.45;96424.38;1827384;77;25730;-72
2022/12/09 00:29:01;;;;;;;77.62;41.30;;;;;;;1.62;74.47;96418.23;1828013;77;25799;-71
2022/12/09 00:31:32;;;;;;;74.45;39.45;;;;;;;1.61;74.46;96423.23;1794729;77;28279;-74
2022/12/09 00:34:07;;;;;;;75.08;41.35;;;;;;;1.59;74.49;96426.56;1813782;77;25279;-71
2022/12/09 00:36:34;;;;;;;79.03;43.10;;;;;;;1.60;74.54;96430.88;1794668;77;25666;-74
2022/12/09 00:39:01;;;;;;;81.60;44.48;;;;;;;1.61;74.56;96427.22;1827809;77;25691;-71
2022/12/09 00:41:28;;;;;;;89.42;47.43;;;;;;;;;;1794979;77;25648;-72
2022/12/09 00:43:55;;;;;;;84.95;44.58;;;;;;;1.63;74.63;96426.55;1794360;77;28182;-71
2022/12/09 00:46:22;;;;;;;83.55;44.90;;;;;;;1.61;74.66;96422.41;1794591;77;25815;-72
2022/12/09 00:48:49;;;;;;;80.07;44.10;;;;;;;1.59;74.61;96430.56;1794270;77;25926;-73
2022/12/09 00:51:20;;;;;;;80.30;44.38;;;;;;;1.59;74.64;96430.56;1835083;77;26822;-71
2022/12/09 00:53:47;;;;;;;84.13;45.12;;;;;;;1.59;74.70;96424.41;1818801;77;25688;-72
2022/12/09 00:56:13;;;;;;;78.60;41.73;;;;;;;1.60;74.71;96428.22;1794610;77;27345;-70
2022/12/09 00:58:40;;;;;;;79.95;43.50;;;;;;;1.61;74.75;96430.38;1794702;77;25721;-72
2022/12/09 01:01:07;;;;;;;75.90;43.73;;;;;;;1.61;74.76;96439.69;1794718;77;25677;-72
2022/12/09 01:03:33;;;;;;;78.12;42.65;;;;;;;1.61;74.76;96439.19;1809659;77;25702;-72
2022/12/09 01:06:00;;;;;;;86.30;43.17;;;;;;;1.60;74.83;96434.87;1842202;77;25720;-74
2022/12/09 01:08:27;;;;;;;86.02;43.78;;;;;;;1.53;74.81;96429.13;1797709;77;27424;-71
2022/12/09 01:10:54;;;;;;;78.90;43.78;;;;;;;1.50;74.88;96437.45;1794807;77;25798;-72
2022/12/09 01:13:20;;;;;;;87.22;43.75;;;;;;;1.48;75.00;96436.80;1801394;77;25721;-72
2022/12/09 01:15:47;;;;;;;76.82;41.63;;;;;;;1.49;75.06;96439.29;1811889;77;25713;-74
2022/12/09 01:18:13;;;;;;;79.17;40.67;;;;;;;1.50;75.10;96446.27;1806310;77;25801;-71
2022/12/09 01:20:40;;;;;;;81.90;40.25;;;;;;;1.52;75.09;96444.26;1811653;77;27345;-71
2022/12/09 01:23:07;;;;;;;75.03;39.70;;;;;;;1.52;75.13;96443.43;1841907;77;25815;-71
2022/12/09 01:25:34;;;;;;;72.65;39.25;;;;;;;1.52;75.13;96444.26;1795855;77;25753;-70
2022/12/09 01:28:00;;;;;;;69.55;37.75;;;;;;;1.49;75.16;96439.29;1794814;77;25683;-71
2022/12/09 01:30:27;;;;;;;76.67;41.63;;;;;;;1.49;75.21;96436.63;1803354;77;25884;-71
2022/12/09 01:32:54;;;;;;;71.53;38.65;;;;;;;1.50;75.23;96438.28;1832232;77;27353;-72
2022/12/09 01:35:20;;;;;;;78.22;41.60;;;;;;;1.52;75.26;96437.61;1800297;77;25685;-72
2022/12/09 01:37:47;;;;;;;72.03;39.35;;;;;;;1.49;75.22;96439.29;1804583;77;25245;-72
2022/12/09 01:40:17;;;;;;;69.37;39.98;;;;;;;1.46;75.28;96436.98;1817840;77;25832;-71
2022/12/09 01:42:44;;;;;;;70.92;38.53;;;;;;;1.43;75.25;96437.36;1828091;77;25428;-71
2022/12/09 01:45:29;;;;;;;65.83;37.10;;;;;;;1.45;75.27;96448.62;1794702;77;27398;-72
2022/12/09 01:48:02;;;;;;;66.67;38.10;;;;;;;1.46;75.36;96447.61;1790080;77;25716;-72
2022/12/09 01:50:30;;;;;;;69.20;36.83;;;;;;;1.47;75.37;96442.63;1794500;77;25901;-72
2022/12/09 01:52:57;;;;;;;65.52;36.65;;;;;;;1.48;75.36;96444.78;1801491;77;26352;-73
2022/12/09 01:55:25;;;;;;;68.20;37.20;;;;;;;1.49;75.37;96436.63;1841942;77;25617;-72
2022/12/09 01:57:51;;;;;;;66.07;35.90;;;;;;;1.48;75.36;96438.96;1805707;77;27369;-72
2022/12/09 02:00:19;;;;;;;61.90;34.45;;;;;;;1.48;75.39;96435.47;1794632;77;25667;-71
2022/12/09 02:02:48;;;;;;;58.48;33.53;;;;;;;1.48;75.41;96432.31;1794766;77;25733;-71
2022/12/09 02:05:15;;;;;;;55.95;32.60;;;;;;;1.48;75.39;96434.97;1819179;77;25684;-72
2022/12/09 02:07:42;;;;;;;61.75;33.85;;;;;;;1.47;75.39;96433.31;1841688;77;25664;-73
2022/12/09 02:10:13;;;;;;;54.93;31.02;;;;;;;1.44;75.37;96421.73;1798076;77;28164;-72
2022/12/09 02:13:16;;;;;;;57.80;32.53;;;;;;;1.40;75.38;96422.58;1794717;77;25204;-71
2022/12/09 02:15:56;;;;;;;59.50;31.25;;;;;;;1.38;75.45;96413.95;1794821;77;25682;-72
2022/12/09 02:18:37;;;;;;;53.83;31.20;;;;;;;1.40;75.51;96411.94;1798515;77;25727;-71
2022/12/09 02:21:11;;;;;;;55.80;31.45;;;;;;;1.40;75.54;96417.27;1749050;80;25462;-72
2022/12/09 02:23:43;;;;;;;56.80;32.40;;;;;;;1.42;75.49;96409.11;1732813;80;27390;-71
2022/12/09 02:26:37;;;;;;;53.80;30.27;;;;;;;1.43;75.50;96415.58;1735580;82;25788;-72
2022/12/09 02:29:37;;;;;;;48.90;26.60;;;;;;;1.45;75.49;96415.38;1728030;82;25802;-72
2022/12/09 02:32:20;;;;;;;46.02;24.35;;;;;;;1.46;75.49;96413.05;1698758;83;25749;-72
2022/12/09 02:34:57;;;;;;;45.33;24.30;;;;;;;1.48;75.41;96415.53;1604299;88;25747;-74
2022/12/09 02:37:32;;;;;;;42.62;22.37;;;;;;;1.46;75.33;96409.05;1608538;87;27407;-72
2022/12/09 02:40:10;;;;;;;44.80;23.22;;;;;;;1.46;75.27;96411.71;1610159;88;25523;-71
2022/12/09 02:42:38;;;;;;;40.70;22.40;;;;;;;1.46;75.26;96413.05;1583642;90;25759;-72
2022/12/09 02:45:09;;;;;;;39.25;21.05;;;;;;;1.45;75.19;96410.05;1583917;90;25877;-72
2022/12/09 02:47:40;;;;;;;40.58;22.58;;;;;;;1.46;75.17;96413.05;1583657;90;25858;-72
2022/12/09 02:50:10;;;;;;;38.95;21.45;;;;;;;1.43;75.20;96405.45;1586617;89;27426;-71
2022/12/09 02:52:38;;;;;;;42.58;22.93;;;;;;;1.43;75.19;96410.77;1586405;89;25770;-74
2022/12/09 02:55:08;;;;;;;41.20;22.60;;;;;;;1.40;75.17;96413.77;1586587;89;25869;-72
2022/12/09 02:57:37;;;;;;;40.73;23.25;;;;;;;1.39;75.15;96412.12;1587043;89;26476;-72
2022/12/09 03:00:07;;;;;;;39.30;20.88;;;;;;;1.39;75.16;96417.44;1581512;88;25694;-72
2022/12/09 03:02:38;;;;;;;38.33;21.20;;;;;;;1.37;75.19;96413.63;1563701;88;27410;-73
2022/12/09 03:05:22;;;;;;;39.25;21.87;;;;;;;1.39;75.28;96413.45;1565274;88;25779;-72
2022/12/09 03:08:03;;;;;;;37.58;21.52;;;;;;;1.40;75.31;96411.11;1626548;85;25796;-71
2022/12/09 03:10:59;;;;;;;35.80;20.40;;;;;;;1.41;75.33;96406.13;1629502;85;25853;-72
2022/12/09 03:13:55;;;;;;;36.05;20.85;;;;;;;1.41;75.31;96405.63;1693852;84;25767;-72
2022/12/09 03:16:30;;;;;;;33.10;21.20;;;;;;;1.37;75.32;96402.16;1689517;84;28318;-71
2022/12/09 03:19:22;;;;;;;38.92;22.15;;;;;;;1.34;75.33;96398.52;1685566;84;25363;-71
2022/12/09 03:21:53;;;;;;;36.70;20.97;;;;;;;1.33;75.36;96401.67;1687008;84;25733;-71
2022/12/09 03:24:25;;;;;;;36.75;20.37;;;;;;;1.34;75.40;96399.34;1691487;83;25715;-71
2022/12/09 03:26:53;;;;;;;38.25;21.10;;;;;;;1.35;75.40;96394.85;1671268;84;25801;-71
2022/12/09 03:29:24;;;;;;;35.90;20.20;;;;;;;1.36;75.39;96402.66;1692626;84;26914;-71
2022/12/09 03:31:52;;;;;;;37.30;21.20;;;;;;;1.33;75.37;96403.50;1694091;84;25736;-71
2022/12/09 03:34:23;;;;;;;38.63;22.15;;;;;;;1.32;75.37;96403.21;1694067;84;25771;-72
2022/12/09 03:36:52;;;;;;;44.38;22.95;;;;;;;1.33;75.34;96406.99;1708360;82;25843;-71
2022/12/09 03:39:24;;;;;;;47.27;24.37;;;;;;;1.30;75.30;96402.56;1742300;80;25790;-74
2022/12/09 03:41:57;;;;;;;48.78;24.18;;;;;;;1.27;75.31;96402.91;1766535;81;28233;-72
2022/12/09 03:44:38;;;;;;;53.87;26.02;;;;;;;1.23;75.31;96405.58;1770575;79;25836;-75
2022/12/09 03:47:07;;;;;;;55.10;25.77;;;;;;;1.19;75.35;96408.30;1765942;80;25781;-71
2022/12/09 03:49:34;;;;;;;47.98;23.70;;;;;;;1.17;75.40;96399.66;1808052;78;26056;-73
2022/12/09 03:52:09;;;;;;;48.55;24.57;;;;;;;1.15;75.37;96389.20;1821677;77;25163;-74
2022/12/09 03:54:43;;;;;;;43.75;23.80;;;;;;;1.15;75.36;96397.68;1826006;78;27429;-73
2022/12/09 03:57:17;;;;;;;46.10;23.98;;;;;;;1.13;75.31;96395.70;1830867;77;25775;-72
2022/12/09 03:59:48;;;;;;;47.73;24.10;;;;;;;1.04;75.19;96387.79;1740707;82;25809;-73
2022/12/09 04:02:15;;;;;;;43.42;21.50;;;;;;;0.95;75.16;96390.69;1734553;82;25678;-71
2022/12/09 04:04:42;;;;;;;33.90;19.27;;;;;;;0.86;75.23;96392.55;1741051;82;25761;-73
2022/12/09 04:07:09;;;;;;;27.15;15.85;;;;;;;0.81;75.29;96394.92;1741600;82;28142;-71
2022/12/09 04:09:36;;;;;;;28.83;16.00;;;;;;;0.75;75.30;96384.98;1741383;82;25695;-73
2022/12/09 04:12:03;;;;;;;30.35;16.15;;;;;;;0.72;75.32;96390.13;1741202;82;25790;-72
2022/12/09 04:14:30;;;;;;;30.32;16.75;;;;;;;0.69;75.33;96389.67;1740737;82;26499;-71
2022/12/09 04:16:57;;;;;;;32.33;17.07;;;;;;;0.67;75.30;96382.38;1741544;82;25605;-71
2022/12/09 04:19:24;;;;;;;36.25;19.37;;;;;;;0.64;75.27;96394.17;1741458;82;28165;-73
2022/12/09 04:21:50;;;;;;;35.98;19.42;;;;;;;0.60;75.19;96392.89;1741236;82;25807;-71
2022/12/09 04:24:17;;;;;;;31.97;21.12;;;;;;;0.48;75.17;96386.31;1741573;82;25756;-73
2022/12/09 04:26:44;;;;;;;30.97;17.95;;;;;;;0.36;75.19;96387.16;1741385;82;26466;-71
2022/12/09 04:29:11;;;;;;;28.12;16.75;;;;;;;0.29;75.31;96392.02;1741134;82;26478;-72
2022/12/09 04:31:38;;;;;;;28.87;17.00;;;;;;;0.26;75.45;96391.86;1740818;82;27626;-74
2022/12/09 04:34:05;;;;;;;33.53;19.92;;;;;;;0.25;75.50;96394.18;1741446;82;25769;-71
2022/12/09 04:36:31;;;;;;;32.80;18.67;;;;;;;0.25;75.46;96402.14;1741608;82;25762;-71
2022/12/09 04:38:58;;;;;;;31.05;18.45;;;;;;;0.20;75.44;96396.54;1741652;82;25801;-71
2022/12/09 04:41:25;;;;;;;29.80;17.67;;;;;;;0.19;75.42;96407.33;1741433;82;25911;-71
2022/12/09 04:43:52;;;;;;;34.45;19.30;;;;;;;0.17;75.46;96402.19;1741675;82;28168;-71
2022/12/09 04:46:18;;;;;;;28.07;16.80;;;;;;;0.14;75.45;96404.34;1741522;82;25813;-71
2022/12/09 04:48:45;;;;;;;29.72;17.23;;;;;;;0.11;75.42;96405.53;1743684;82;25772;-71
2022/12/09 04:51:14;;;;;;;26.50;15.63;;;;;;;0.09;75.39;96410.18;1749011;82;25800;-71
2022/12/09 04:53:41;;;;;;;29.15;16.62;;;;;;;0.06;75.39;96418.47;1749355;82;25884;-73
2022/12/09 04:56:17;;;;;;;26.10;15.78;;;;;;;0.02;75.41;96418.47;1782957;77;27381;-74
2022/12/09 04:58:45;;;;;;;30.55;16.70;;;;;;;0.02;75.49;96414.50;1812268;77;25716;-73
2022/12/09 05:01:16;;;;;;;25.48;15.85;;;;;;;0.01;75.43;96412.83;1812115;77;25729;-71
2022/12/09 05:03:44;;;;;;;31.12;16.87;;;;;;;-0.10;75.19;96412.70;1812252;77;25704;-71
2022/12/09 05:06:13;;;;;;;27.77;17.35;;;;;;;-0.19;75.27;96414.22;1808720;77;25689;-70
2022/12/09 05:08:40;;;;;;;27.82;17.20;;;;;;;-0.22;75.41;96411.89;1834643;77;27439;-72
2022/12/09 05:11:07;;;;;;;33.10;20.08;;;;;;;-0.23;75.48;96411.56;1812230;77;25779;-75
2022/12/09 05:13:34;;;;;;;38.90;21.93;;;;;;;-0.25;75.51;96412.25;1812164;77;25673;-71
2022/12/09 05:16:09;;;;;;;42.43;23.83;;;;;;;-0.27;75.44;96422.20;1812299;77;25744;-74
2022/12/09 05:18:35;;;;;;;48.08;28.17;;;;;;;-0.32;75.39;96427.16;1812324;77;25633;-74
2022/12/09 05:21:08;;;;;;;46.58;24.45;;;;;;;-0.41;75.41;96421.88;1812487;77;27323;-71
2022/12/09 05:23:35;;;;;;;31.48;18.30;;;;;;;-0.45;75.51;96420.55;1812142;77;25735;-71
2022/12/09 05:26:05;;;;;;;29.57;16.95;;;;;;;-0.48;75.56;96415.57;1812277;77;25662;-73
2022/12/09 05:28:33;;;;;;;27.45;15.80;;;;;;;-0.49;75.61;96413.11;1812358;77;25733;-71
2022/12/09 05:31:03;;;;;;;27.58;15.75;;;;;;;-0.51;75.66;96413.28;1812391;77;25772;-71
2022/12/09 05:33:30;;;;;;;26.55;15.48;;;;;;;-0.53;75.63;96417.08;1809042;77;27363;-75
2022/12/09 05:35:57;;;;;;;25.45;14.95;;;;;;;-0.56;75.65;96420.89;1812164;77;25674;-71
2022/12/09 05:38:25;;;;;;;30.62;15.32;;;;;;;-0.58;75.68;96413.59;1812440;77;25603;-75
2022/12/09 05:40:52;;;;;;;26.17;16.62;;;;;;;-0.58;75.67;96417.57;1812141;77;25692;-71
2022/12/09 05:43:19;;;;;;;39.78;20.00;;;;;;;-0.58;75.59;96411.44;1812056;77;25856;-71
2022/12/09 05:45:45;;;;;;;36.20;20.75;;;;;;;-0.60;75.62;96412.09;1812225;77;27366;-72
2022/12/09 05:48:12;;;;;;;43.15;23.27;;;;;;;-0.63;75.56;96407.16;1812232;77;25607;-72
2022/12/09 05:50:38;;;;;;;40.25;23.07;;;;;;;-0.66;75.57;96404.33;1800996;77;25765;-71
2022/12/09 05:53:05;;;;;;;56.35;30.37;;;;;;;-0.68;75.49;96407.64;1822456;77;25696;-71
2022/12/09 05:55:32;;;;;;;55.08;29.27;;;;;;;-0.73;75.51;96399.38;1795484;77;25250;-72
2022/12/09 05:57:58;;;;;;;50.88;26.62;;;;;;;-0.79;75.52;96407.97;1841912;77;27357;-71
2022/12/09 06:00:25;;;;;;;46.23;23.38;;;;;;;-0.83;75.58;96401.34;1812110;77;25719;-71
2022/12/09 06:02:52;;;;;;;38.40;22.05;;;;;;;-0.85;75.72;96410.80;1815714;77;25763;-71
2022/12/09 06:05:18;;;;;;;43.17;24.57;;;;;;;-0.86;75.75;96413.61;1825276;77;25725;-72
2022/12/09 06:07:45;;;;;;;60.85;31.07;;;;;;;-0.89;75.75;96411.28;1825737;77;25399;-73
2022/12/09 06:10:12;;;;;;;58.90;31.00;;;;;;;-0.90;75.80;96416.25;1808668;77;27352;-74
2022/12/09 06:12:38;;;;;;;57.50;32.20;;;;;;;-0.91;75.81;96411.44;1815026;77;25475;-71
2022/12/09 06:15:07;;;;;;;48.87;29.02;;;;;;;-0.91;75.76;96413.27;1827986;77;25711;-74
2022/12/09 06:17:34;;;;;;;48.65;28.65;;;;;;;-0.94;75.74;96410.44;1818071;77;26328;-72
2022/12/09 06:20:01;;;;;;;46.40;26.27;;;;;;;-0.96;75.65;96410.27;1808734;77;25912;-72
2022/12/09 06:22:27;;;;;;;42.43;25.12;;;;;;;-0.98;75.64;96406.98;1822857;77;27340;-72
2022/12/09 06:24:55;;;;;;;44.45;23.92;;;;;;;-0.99;75.58;96415.91;1794628;77;25192;-75
2022/12/09 06:27:22;;;;;;;40.10;21.73;;;;;;;-1.00;75.58;96416.41;1826636;77;25674;-73
2022/12/09 06:29:48;;;;;;;42.25;22.37;;;;;;;-1.02;75.51;96429.48;1824536;77;25704;-70
2022/12/09 06:32:15;;;;;;;47.35;23.07;;;;;;;-1.04;75.55;96432.28;1841918;77;25420;-71
2022/12/09 06:34:42;;;;;;;52.73;28.73;;;;;;;-1.07;75.56;96426.47;1816204;77;27969;-71
2022/12/09 06:37:08;;;;;;;60.90;32.20;;;;;;;-1.09;75.60;96422.17;1794508;77;25216;-74
2022/12/09 06:39:35;;;;;;;63.90;34.13;;;;;;;-1.10;75.62;96424.52;1794615;77;25698;-72
2022/12/09 06:42:03;;;;;;;60.08;32.98;;;;;;;-1.13;75.57;96422.18;1794678;77;25679;-72
2022/12/09 06:44:29;;;;;;;53.75;30.62;;;;;;;-1.15;75.56;96420.19;1794621;77;25939;-71
2022/12/09 06:46:56;;;;;;;60.23;32.85;;;;;;;-1.19;75.57;96421.48;1794643;77;27367;-74
2022/12/09 06:49:22;;;;;;;59.13;34.18;;;;;;;-1.24;75.53;96425.14;1842071;77;25662;-72
2022/12/09 06:51:49;;;;;;;49.67;29.27;;;;;;;-1.27;75.57;96420.16;1825592;77;25651;-71
2022/12/09 06:54:16;;;;;;;48.00;28.05;;;;;;;-1.28;75.60;96422.47;1812237;77;25801;-71
2022/12/09 06:56:42;;;;;;;47.43;26.45;;;;;;;-1.29;75.62;96412.87;1812223;77;26283;-71
2022/12/09 06:59:10;;;;;;;44.75;25.02;;;;;;;-1.29;75.57;96419.48;1812230;77;27423;-72
2022/12/09 07:01:38;;;;;;;40.35;23.25;;;;;;;-1.30;75.59;96419.16;1812069;77;25643;-71
2022/12/09 07:04:05;;;;;;;42.53;24.43;;;;;;;-1.30;75.59;96413.86;1812233;77;25699;-71
2022/12/09 07:06:41;;;;;;;46.60;25.65;;;;;;;-1.30;75.57;96418.32;1812228;77;25678;-73
2022/12/09 07:09:15;;;;;;;47.20;26.80;;;;;;;-1.33;75.56;96420.82;1812264;77;25838;-72
2022/12/09 07:11:44;;;;;;;54.00;28.80;;;;;;;-1.35;75.57;96416.18;1808087;77;28227;-72
2022/12/09 07:14:11;;;;;;;49.70;31.12;;;;;;;-1.34;75.64;96412.55;1811947;77;25681;-72
2022/12/09 07:16:39;;;;;;;57.58;33.10;;;;;;;-1.33;75.65;96414.70;1811912;77;25685;-71
2022/12/09 07:19:06;;;;;;;57.50;32.98;;;;;;;-1.35;75.62;96417.50;1812063;77;25684;-72
2022/12/09 07:21:33;;;;;;;58.10;32.05;;;;;;;-1.34;75.69;96415.19;1811891;77;26776;-71
2022/12/09 07:24:01;;;;;;;65.57;35.23;;;;;;;-1.33;75.79;96407.59;1811953;77;27375;-72
2022/12/09 07:26:32;;;;;;;61.65;32.88;;;;;;;-1.31;75.72;96406.91;1824008;77;25765;-71
2022/12/09 07:29:02;;;;;;;79.12;38.75;;;;;;;-1.30;75.75;96408.56;1827281;77;26614;-75
2022/12/09 07:31:28;;;;;;;78.30;41.18;;;;;;;-1.28;75.77;96399.14;1826763;77;25748;-70
2022/12/09 07:33:57;;;;;;;89.28;47.95;;;;;;;-1.28;75.79;96397.81;1824546;77;25223;-75
2022/12/09 07:36:28;;;;;;;102.87;56.90;;;;;;;-1.29;75.73;96398.31;1828795;77;27368;-74
2022/12/09 07:39:06;;;;;;;100.72;54.83;;;;;;;-1.28;75.73;96399.97;1829922;77;26333;-74
2022/12/09 07:41:33;;;;;;;95.87;55.43;;;;;;;-1.27;75.76;96382.27;1775534;80;25747;-72
2022/12/09 07:44:00;;;;;;;94.70;51.68;;;;;;;-1.26;75.76;96375.98;1775552;80;25708;-75
2022/12/09 07:46:26;;;;;;;82.27;46.53;;;;;;;-1.24;75.77;96386.75;1775713;80;25728;-73
2022/12/09 07:48:54;;;;;;;76.30;42.43;;;;;;;-1.24;75.84;96389.39;1775307;79;27386;-72
2022/12/09 07:51:21;;;;;;;73.95;40.70;;;;;;;-1.25;75.82;96378.96;1767172;79;26444;-72
2022/12/09 07:53:48;;;;;;;73.78;42.43;;;;;;;-1.24;75.88;96388.07;1766394;80;25727;-72
2022/12/09 07:56:17;;;;;;;72.37;40.25;;;;;;;-1.18;75.91;96383.92;1770510;79;26490;-73
2022/12/09 07:58:51;;;;;;;75.40;39.03;;;;;;;-1.16;75.93;96384.59;1775187;79;25695;-72
2022/12/09 08:01:20;;;;;;;70.50;39.85;;;;;;;-1.12;75.91;96390.73;1769222;80;27562;-71
2022/12/09 08:03:49;;;;;;;65.50;39.40;;;;;;;-1.09;75.94;96387.73;1774019;80;25822;-75
2022/12/09 08:06:21;;;;;;;67.58;39.20;;;;;;;-1.04;75.94;96386.42;1774150;79;25797;-71
2022/12/09 08:08:49;;;;;;;72.10;41.60;;;;;;;-1.01;75.93;96382.13;1773199;80;25695;-73
2022/12/09 08:11:23;;;;;;;75.97;45.12;;;;;;;-0.99;75.93;96384.95;1738660;81;25910;-72
2022/12/09 08:13:50;;;;;;;71.87;44.15;;;;;;;-0.95;75.97;96378.31;1773045;80;27382;-72
2022/12/09 08:16:20;;;;;;;73.97;42.43;;;;;;;-0.94;75.99;96376.00;1738478;81;25809;-71
2022/12/09 08:18:47;;;;;;;71.10;39.65;;;;;;;-0.90;75.99;96376.51;1773025;80;25811;-73
2022/12/09 08:21:22;;;;;;;69.85;40.15;;;;;;;-0.86;75.97;96371.22;1738413;81;25750;-74
2022/12/09 08:23:50;;;;;;;63.65;37.13;;;;;;;-0.82;75.97;96371.20;1729077;81;25733;-71
2022/12/09 08:26:20;;;;;;;58.98;34.83;;;;;;;-0.77;75.98;96378.16;1729132;81;27382;-72
2022/12/09 08:28:47;;;;;;;66.75;38.95;;;;;;;-0.73;75.94;96386.13;1729003;81;25782;-71
2022/12/09 08:31:18;;;;;;;71.40;39.33;;;;;;;-0.67;75.94;96394.72;1729000;81;26897;-72
2022/12/09 08:33:45;;;;;;;72.32;39.20;;;;;;;-0.61;75.92;96389.27;1683174;85;26560;-71
2022/12/09 08:36:17;;;;;;;68.90;38.88;;;;;;;-0.56;75.87;96388.25;1688956;84;25742;-70
2022/12/09 08:38:44;;;;;;;69.70;38.78;;;;;;;-0.51;75.97;96389.42;1641227;87;27406;-71
2022/12/09 08:41:21;;;;;;;58.13;34.18;;;;;;;-0.42;75.97;96394.20;1639633;87;25898;-71
2022/12/09 08:43:48;;;;;;;62.85;34.80;;;;;;;-0.33;75.96;96388.38;1590177;89;25795;-73
2022/12/09 08:46:15;;;;;;;59.53;34.40;;;;;;;-0.24;75.95;96394.02;1558164;91;25702;-73
2022/12/09 08:48:42;;;;;;;65.20;37.13;;;;;;;-0.11;75.88;96383.19;1536193;93;25789;-73
2022/12/09 08:51:10;;;;;;;58.42;33.23;;;;;;;0.03;75.69;96377.68;1569975;90;27284;-73
2022/12/09 08:53:37;;;;;;;59.25;33.67;;;;;;;0.21;75.64;96368.17;1565951;90;25320;-72
2022/12/09 08:56:10;;;;;;;52.50;31.12;;;;;;;0.41;75.55;96372.55;1559869;91;25803;-72
2022/12/09 08:58:37;;;;;;;54.33;31.85;;;;;;;0.54;75.34;96371.49;1571683;90;26517;-74
2022/12/09 09:01:04;;;;;;;55.50;32.70;;;;;;;0.66;75.20;96366.94;1559288;91;25806;-72
2022/12/09 09:03:31;;;;;;;55.35;31.85;;;;;;;0.76;75.07;96373.35;1569509;90;27459;-71
2022/12/09 09:06:04;;;;;;;54.10;30.23;;;;;;;0.85;75.07;96359.01;1569473;90;25834;-72
2022/12/09 09:08:31;;;;;;;50.73;29.65;;;;;;;0.97;75.02;96360.25;1569632;90;26053;-71
2022/12/09 09:10:58;;;;;;;48.10;28.05;;;;;;;1.09;74.91;96350.86;1569424;90;25858;-74
2022/12/09 09:13:25;;;;;;;53.70;30.12;;;;;;;1.21;74.82;96352.59;1566484;90;25857;-72
2022/12/09 09:15:52;;;;;;;56.70;32.17;;;;;;;1.36;74.80;96343.33;1621332;87;27422;-72
2022/12/09 09:18:19;;;;;;;60.00;34.95;;;;;;;1.56;74.64;96335.19;1627602;87;25684;-72
2022/12/09 09:20:49;;;;;;;63.30;35.10;;;;;;;1.72;74.40;96324.36;1641528;85;25341;-72
2022/12/09 09:23:15;;;;;;;74.47;40.45;;;;;;;1.94;74.31;96325.78;1646337;85;26537;-72
2022/12/09 09:25:43;;;;;;;85.55;44.95;;;;;;;2.11;74.18;96328.58;1646326;85;25734;-71
2022/12/09 09:28:10;;;;;;;90.15;45.78;;;;;;;2.24;74.11;96324.77;1646403;85;27396;-73
2022/12/09 09:30:37;;;;;;;76.17;40.48;;;;;;;2.41;73.91;96330.21;1687762;82;25825;-72
2022/12/09 09:33:04;;;;;;;77.15;42.17;;;;;;;2.54;73.31;96329.52;1731025;82;25466;-72
2022/12/09 09:35:31;;;;;;;68.42;37.00;;;;;;;2.65;72.99;96330.89;1758868;79;25769;-72
2022/12/09 09:37:57;;;;;;;62.08;35.50;;;;;;;2.75;72.48;96330.90;1794393;78;25673;-71
2022/12/09 09:40:28;;;;;;;45.63;25.85;;;;;;;2.89;72.72;96326.53;1794405;79;28259;-71
2022/12/09 09:42:57;;;;;;;39.85;24.92;;;;;;;3.10;72.70;96325.20;1776054;79;25702;-71
2022/12/09 09:45:24;;;;;;;46.00;25.65;;;;;;;3.32;72.37;96321.17;1794438;78;25748;-72
2022/12/09 09:47:55;;;;;;;50.12;27.82;;;;;;;3.46;71.62;96320.27;1794337;79;25751;-72
2022/12/09 09:50:40;;;;;;;43.55;26.00;;;;;;;3.65;71.76;96318.25;1805231;77;25801;-70
2022/12/09 09:53:12;;;;;;;46.00;27.10;;;;;;;3.82;71.34;96307.59;1825756;77;28260;-72
2022/12/09 09:55:48;;;;;;;46.33;26.55;;;;;;;4.02;71.08;96304.20;1728476;82;25781;-71
2022/12/09 09:58:54;;;;;;;46.20;27.05;;;;;;;4.21;70.80;96303.50;1720378;83;26111;-72
2022/12/09 10:01:24;;;;;;;42.85;24.82;;;;;;;4.44;70.50;96301.85;1703923;83;25892;-72
2022/12/09 10:04:02;;;;;;;45.20;26.52;;;;;;;4.64;70.18;96289.37;1696839;83;25912;-71
2022/12/09 10:06:42;;;;;;;46.53;26.35;;;;;;;4.62;69.43;96289.56;1692277;83;27389;-72
2022/12/09 10:09:20;;;;;;;46.25;25.88;;;;;;;4.48;69.29;96283.86;1669898;85;26379;-72
2022/12/09 10:12:00;;;;;;;41.15;25.70;;;;;;;4.34;68.98;96281.69;1633270;85;25798;-72
2022/12/09 10:14:57;;;;;;;43.15;23.85;;;;;;;4.20;68.90;96277.30;1702099;82;25897;-72
2022/12/09 10:17:38;;;;;;;41.25;22.60;;;;;;;4.09;69.01;96282.39;1701666;82;25815;-72
2022/12/09 10:20:18;;;;;;;32.17;19.50;;;;;;;4.06;69.36;96285.45;1697663;82;28113;-73
2022/12/09 10:22:53;;;;;;;27.13;16.67;;;;;;;4.13;69.35;96291.13;1555274;92;25851;-71
2022/12/09 10:25:30;;;;;;;26.77;15.05;;;;;;;4.17;69.04;96292.89;1540433;92;25873;-72
2022/12/09 10:28:02;;;;;;;32.88;18.60;;;;;;;4.18;68.88;96291.88;1475559;95;26572;-72
2022/12/09 10:30:29;;;;;;;29.45;18.10;;;;;;;4.20;68.78;96292.50;1456457;97;33218;-72
2022/12/09 10:32:55;;;;;;;29.98;19.37;;;;;;;4.19;68.69;96302.88;1500560;94;28386;-72
2022/12/09 10:35:26;;;;;;;49.45;28.52;;;;;;;4.14;68.53;96299.95;1502663;93;26049;-72
2022/12/09 10:37:57;;;;;;;64.25;32.42;;;;;;;4.17;68.65;96308.92;1456132;97;25930;-72
2022/12/09 10:41:07;;;;;;;50.10;25.77;;;;;;;4.20;68.55;96304.52;1451155;98;26328;-74
2022/12/09 10:43:37;;;;;;;36.68;22.10;;;;;;;4.16;68.13;96303.27;1449624;98;25884;-72
2022/12/09 10:46:09;;;;;;;38.98;21.57;;;;;;;3.98;68.11;96291.24;1464645;95;27518;-72
2022/12/09 10:48:54;;;;;;;39.58;21.68;;;;;;;3.91;68.39;96285.05;1495135;95;25377;-72
2022/12/09 10:51:31;;;;;;;38.50;21.62;;;;;;;3.90;68.44;96286.08;1470388;97;25647;-72
2022/12/09 10:54:18;;;;;;;38.70;20.62;;;;;;;3.90;68.53;96286.58;1514846;94;26565;-72
2022/12/09 10:57:15;;;;;;;34.08;19.42;;;;;;;3.95;68.70;96280.98;1489621;95;25962;-72
2022/12/09 10:59:59;;;;;;;29.32;18.20;;;;;;;3.99;68.55;96276.88;1449475;97;27461;-71
2022/12/09 11:02:28;;;;;;;32.13;17.85;;;;;;;3.96;68.30;96277.30;1427823;98;25871;-72
2022/12/09 11:04:55;;;;;;;31.27;18.20;;;;;;;3.98;68.56;96269.88;1428074;98;25865;-72
2022/12/09 11:07:25;;;;;;;31.70;18.67;;;;;;;4.04;68.65;96270.95;1428210;98;25835;-71
2022/12/09 11:09:57;;;;;;;32.45;20.17;;;;;;;4.10;68.37;96263.50;1426064;98;26010;-72
2022/12/09 11:12:30;;;;;;;34.98;19.30;;;;;;;4.08;68.18;96266.05;1426367;98;32508;-72
2022/12/09 11:15:04;;;;;;;34.13;20.15;;;;;;;4.06;68.16;96268.91;1428034;98;25911;-72
2022/12/09 11:17:38;;;;;;;26.33;15.95;;;;;;;4.09;68.17;96273.04;1428199;98;25881;-73
2022/12/09 11:20:10;;;;;;;27.00;16.15;;;;;;;4.22;68.08;96265.09;1447326;98;25898;-70
2022/12/09 11:22:40;;;;;;;28.83;17.35;;;;;;;4.37;67.95;96263.58;1448800;98;25859;-72
2022/12/09 11:25:24;;;;;;;30.60;16.95;;;;;;;4.49;67.81;96268.14;1426436;100;27433;-74
2022/12/09 11:28:14;;;;;;;22.55;14.20;;;;;;;4.62;67.89;96269.52;1430039;98;25871;-73
2022/12/09 11:31:00;;;;;;;25.90;16.35;;;;;;;4.72;67.20;96262.45;1436098;97;25956;-72
2022/12/09 11:33:37;;;;;;;26.42;15.88;;;;;;;4.77;67.15;96260.51;1414416;99;26600;-71
2022/12/09 11:36:12;;;;;;;29.23;15.13;;;;;;;4.89;67.11;96254.88;1414705;99;25617;-70
2022/12/09 11:38:47;;;;;;;25.72;15.72;;;;;;;4.94;66.98;96259.11;1410144;99;27449;-72